sensor_id;sensor_type;location;lat;lon;timestamp;P1;durP1;ratioP1;P2;durP2;ratioP2
23754;SDS011;12057;52.042;6.830;2023-05-10T00:01:35;29.67;;;10.17;;
23754;SDS011;12057;52.042;6.830;2023-05-10T00:06:36;16.75;;;8.60;;
23754;SDS011;12057;52.042;6.830;2023-05-10T00:11:36;14.90;;;5.87;;
23754;SDS011;12057;52.042;6.830;2023-05-10T00:16:37;13.67;;;5.33;;
23754;SDS011;12057;52.042;6.830;2023-05-10T00:21:38;8.27;;;3.73;;
23754;SDS011;12057;52.042;6.830;2023-05-10T00:26:39;5.97;;;3.60;;
23754;SDS011;12057;52.042;6.830;2023-05-10T00:31:39;7.30;;;4.40;;
23754;SDS011;12057;52.042;6.830;2023-05-10T00:36:40;6.67;;;4.27;;
23754;SDS011;12057;52.042;6.830;2023-05-10T00:41:41;14.10;;;4.63;;
23754;SDS011;12057;52.042;6.830;2023-05-10T00:46:42;11.67;;;4.67;;
23754;SDS011;12057;52.042;6.830;2023-05-10T00:51:43;8.87;;;5.07;;
23754;SDS011;12057;52.042;6.830;2023-05-10T01:01:48;21.42;;;5.13;;
23754;SDS011;12057;52.042;6.830;2023-05-10T01:06:49;17.07;;;4.93;;
23754;SDS011;12057;52.042;6.830;2023-05-10T01:17:47;9.15;;;5.85;;
23754;SDS011;12057;52.042;6.830;2023-05-10T01:33:30;9.55;;;5.47;;
23754;SDS011;12057;52.042;6.830;2023-05-10T01:49:22;8.52;;;5.05;;
23754;SDS011;12057;52.042;6.830;2023-05-10T01:54:25;10.02;;;5.60;;
23754;SDS011;12057;52.042;6.830;2023-05-10T01:59:29;13.15;;;5.85;;
23754;SDS011;12057;52.042;6.830;2023-05-10T02:09:43;16.20;;;6.82;;
23754;SDS011;12057;52.042;6.830;2023-05-10T02:14:47;14.13;;;8.10;;
23754;SDS011;12057;52.042;6.830;2023-05-10T02:19:50;16.23;;;7.75;;
23754;SDS011;12057;52.042;6.830;2023-05-10T02:24:53;21.23;;;10.07;;
23754;SDS011;12057;52.042;6.830;2023-05-10T02:29:57;15.75;;;8.52;;
23754;SDS011;12057;52.042;6.830;2023-05-10T02:34:58;24.30;;;10.48;;
23754;SDS011;12057;52.042;6.830;2023-05-10T02:40:02;21.88;;;11.40;;
23754;SDS011;12057;52.042;6.830;2023-05-10T02:50:15;27.63;;;12.40;;
23754;SDS011;12057;52.042;6.830;2023-05-10T02:55:16;25.00;;;10.90;;
23754;SDS011;12057;52.042;6.830;2023-05-10T03:00:19;30.10;;;13.73;;
23754;SDS011;12057;52.042;6.830;2023-05-10T03:05:20;43.13;;;16.30;;
23754;SDS011;12057;52.042;6.830;2023-05-10T03:10:22;35.50;;;14.40;;
23754;SDS011;12057;52.042;6.830;2023-05-10T03:21:04;52.35;;;20.10;;
23754;SDS011;12057;52.042;6.830;2023-05-10T03:26:14;49.72;;;19.73;;
23754;SDS011;12057;52.042;6.830;2023-05-10T03:31:28;60.45;;;19.95;;
23754;SDS011;12057;52.042;6.830;2023-05-10T03:36:28;60.37;;;21.17;;
23754;SDS011;12057;52.042;6.830;2023-05-10T03:41:29;64.37;;;21.87;;
23754;SDS011;12057;52.042;6.830;2023-05-10T03:46:30;83.33;;;22.40;;
23754;SDS011;12057;52.042;6.830;2023-05-10T03:51:31;75.80;;;23.70;;
23754;SDS011;12057;52.042;6.830;2023-05-10T03:56:31;82.80;;;25.90;;
23754;SDS011;12057;52.042;6.830;2023-05-10T04:01:35;88.30;;;26.80;;
23754;SDS011;12057;52.042;6.830;2023-05-10T04:06:37;109.38;;;29.80;;
23754;SDS011;12057;52.042;6.830;2023-05-10T04:11:38;100.43;;;29.00;;
23754;SDS011;12057;52.042;6.830;2023-05-10T04:16:39;95.97;;;29.27;;
23754;SDS011;12057;52.042;6.830;2023-05-10T04:21:39;107.50;;;29.73;;
23754;SDS011;12057;52.042;6.830;2023-05-10T04:26:40;110.93;;;34.40;;
23754;SDS011;12057;52.042;6.830;2023-05-10T04:31:41;123.20;;;34.37;;
23754;SDS011;12057;52.042;6.830;2023-05-10T04:36:42;112.50;;;34.73;;
23754;SDS011;12057;52.042;6.830;2023-05-10T04:41:43;131.18;;;37.50;;
23754;SDS011;12057;52.042;6.830;2023-05-10T04:46:44;114.80;;;34.43;;
23754;SDS011;12057;52.042;6.830;2023-05-10T04:51:44;118.03;;;35.00;;
23754;SDS011;12057;52.042;6.830;2023-05-10T04:56:45;121.80;;;35.90;;
23754;SDS011;12057;52.042;6.830;2023-05-10T05:01:46;136.97;;;37.87;;
23754;SDS011;12057;52.042;6.830;2023-05-10T05:06:46;136.23;;;37.33;;
23754;SDS011;12057;52.042;6.830;2023-05-10T05:11:47;129.10;;;38.47;;
23754;SDS011;12057;52.042;6.830;2023-05-10T05:16:52;148.70;;;42.57;;
23754;SDS011;12057;52.042;6.830;2023-05-10T05:21:52;151.48;;;41.40;;
23754;SDS011;12057;52.042;6.830;2023-05-10T05:26:53;144.63;;;44.67;;
23754;SDS011;12057;52.042;6.830;2023-05-10T05:31:54;145.60;;;43.10;;
23754;SDS011;12057;52.042;6.830;2023-05-10T05:36:55;148.33;;;42.20;;
23754;SDS011;12057;52.042;6.830;2023-05-10T05:41:55;150.57;;;44.30;;
23754;SDS011;12057;52.042;6.830;2023-05-10T05:46:56;152.97;;;46.37;;
23754;SDS011;12057;52.042;6.830;2023-05-10T05:52:00;147.73;;;45.60;;
23754;SDS011;12057;52.042;6.830;2023-05-10T05:57:02;135.95;;;42.20;;
23754;SDS011;12057;52.042;6.830;2023-05-10T06:02:03;146.52;;;45.55;;
23754;SDS011;12057;52.042;6.830;2023-05-10T06:07:04;146.70;;;43.87;;
23754;SDS011;12057;52.042;6.830;2023-05-10T06:12:05;159.47;;;44.43;;
23754;SDS011;12057;52.042;6.830;2023-05-10T06:17:06;146.10;;;45.30;;
23754;SDS011;12057;52.042;6.830;2023-05-10T06:22:06;163.87;;;45.80;;
23754;SDS011;12057;52.042;6.830;2023-05-10T06:27:07;160.87;;;45.60;;
23754;SDS011;12057;52.042;6.830;2023-05-10T06:32:08;139.43;;;44.07;;
23754;SDS011;12057;52.042;6.830;2023-05-10T06:37:09;150.33;;;41.97;;
23754;SDS011;12057;52.042;6.830;2023-05-10T06:42:09;132.80;;;40.27;;
23754;SDS011;12057;52.042;6.830;2023-05-10T06:47:10;145.30;;;43.70;;
23754;SDS011;12057;52.042;6.830;2023-05-10T06:52:11;135.43;;;43.00;;
23754;SDS011;12057;52.042;6.830;2023-05-10T06:57:12;128.47;;;39.93;;
23754;SDS011;12057;52.042;6.830;2023-05-10T07:02:13;123.63;;;39.70;;
23754;SDS011;12057;52.042;6.830;2023-05-10T07:07:14;122.82;;;39.58;;
23754;SDS011;12057;52.042;6.830;2023-05-10T07:12:15;111.97;;;37.37;;
23754;SDS011;12057;52.042;6.830;2023-05-10T07:17:16;124.63;;;38.87;;
23754;SDS011;12057;52.042;6.830;2023-05-10T07:22:17;116.83;;;37.67;;
23754;SDS011;12057;52.042;6.830;2023-05-10T07:27:18;130.77;;;36.43;;
23754;SDS011;12057;52.042;6.830;2023-05-10T07:32:19;122.07;;;36.57;;
23754;SDS011;12057;52.042;6.830;2023-05-10T07:37:20;101.80;;;34.88;;
23754;SDS011;12057;52.042;6.830;2023-05-10T07:42:21;106.73;;;32.53;;
23754;SDS011;12057;52.042;6.830;2023-05-10T07:47:21;106.87;;;33.57;;
23754;SDS011;12057;52.042;6.830;2023-05-10T07:52:23;107.30;;;33.67;;
23754;SDS011;12057;52.042;6.830;2023-05-10T07:57:24;102.20;;;34.43;;
23754;SDS011;12057;52.042;6.830;2023-05-10T08:02:24;94.53;;;32.80;;
23754;SDS011;12057;52.042;6.830;2023-05-10T08:07:25;102.67;;;34.30;;
23754;SDS011;12057;52.042;6.830;2023-05-10T08:12:26;104.50;;;32.90;;
23754;SDS011;12057;52.042;6.830;2023-05-10T08:17:27;110.57;;;33.53;;
23754;SDS011;12057;52.042;6.830;2023-05-10T08:22:27;101.27;;;37.00;;
23754;SDS011;12057;52.042;6.830;2023-05-10T08:27:28;96.60;;;32.47;;
23754;SDS011;12057;52.042;6.830;2023-05-10T08:32:29;94.80;;;32.17;;
23754;SDS011;12057;52.042;6.830;2023-05-10T08:37:30;100.07;;;32.57;;
23754;SDS011;12057;52.042;6.830;2023-05-10T08:42:33;90.72;;;31.70;;
23754;SDS011;12057;52.042;6.830;2023-05-10T08:47:37;95.20;;;34.60;;
23754;SDS011;12057;52.042;6.830;2023-05-10T08:52:39;87.95;;;30.05;;
23754;SDS011;12057;52.042;6.830;2023-05-10T08:57:41;86.00;;;32.40;;
23754;SDS011;12057;52.042;6.830;2023-05-10T09:02:42;103.87;;;36.00;;
23754;SDS011;12057;52.042;6.830;2023-05-10T09:07:44;82.25;;;32.33;;
23754;SDS011;12057;52.042;6.830;2023-05-10T09:12:44;86.17;;;31.43;;
23754;SDS011;12057;52.042;6.830;2023-05-10T09:17:46;70.43;;;30.07;;
23754;SDS011;12057;52.042;6.830;2023-05-10T09:22:48;86.07;;;29.00;;
23754;SDS011;12057;52.042;6.830;2023-05-10T09:27:49;86.45;;;30.75;;
23754;SDS011;12057;52.042;6.830;2023-05-10T09:32:50;87.33;;;30.27;;
23754;SDS011;12057;52.042;6.830;2023-05-10T09:37:52;88.95;;;31.85;;
23754;SDS011;12057;52.042;6.830;2023-05-10T09:47:57;86.65;;;29.88;;
23754;SDS011;12057;52.042;6.830;2023-05-10T09:52:59;78.13;;;31.25;;
23754;SDS011;12057;52.042;6.830;2023-05-10T09:58:02;79.93;;;30.65;;
23754;SDS011;12057;52.042;6.830;2023-05-10T10:08:05;74.43;;;29.60;;
23754;SDS011;12057;52.042;6.830;2023-05-10T10:13:07;69.85;;;28.85;;
23754;SDS011;12057;52.042;6.830;2023-05-10T10:18:08;68.28;;;28.05;;
23754;SDS011;12057;52.042;6.830;2023-05-10T10:23:14;65.20;;;30.13;;
23754;SDS011;12057;52.042;6.830;2023-05-10T10:28:39;58.97;;;25.33;;
23754;SDS011;12057;52.042;6.830;2023-05-10T10:39:10;60.45;;;24.15;;
23754;SDS011;12057;52.042;6.830;2023-05-10T10:49:33;50.22;;;22.83;;
23754;SDS011;12057;52.042;6.830;2023-05-10T10:54:38;51.20;;;22.02;;
23754;SDS011;12057;52.042;6.830;2023-05-10T10:59:42;45.17;;;21.50;;
23754;SDS011;12057;52.042;6.830;2023-05-10T11:04:44;45.17;;;20.42;;
23754;SDS011;12057;52.042;6.830;2023-05-10T11:09:49;37.13;;;18.42;;
23754;SDS011;12057;52.042;6.830;2023-05-10T11:14:50;46.00;;;19.77;;
23754;SDS011;12057;52.042;6.830;2023-05-10T11:20:07;45.80;;;20.70;;
23754;SDS011;12057;52.042;6.830;2023-05-10T11:25:09;51.95;;;20.85;;
23754;SDS011;12057;52.042;6.830;2023-05-10T11:30:11;49.67;;;20.27;;
23754;SDS011;12057;52.042;6.830;2023-05-10T11:35:12;62.20;;;24.13;;
23754;SDS011;12057;52.042;6.830;2023-05-10T11:40:13;74.03;;;25.08;;
23754;SDS011;12057;52.042;6.830;2023-05-10T11:45:14;77.60;;;26.88;;
23754;SDS011;12057;52.042;6.830;2023-05-10T11:50:15;75.03;;;27.00;;
23754;SDS011;12057;52.042;6.830;2023-05-10T11:55:17;68.72;;;27.80;;
23754;SDS011;12057;52.042;6.830;2023-05-10T12:00:17;68.00;;;27.53;;
23754;SDS011;12057;52.042;6.830;2023-05-10T12:05:18;73.20;;;28.43;;
23754;SDS011;12057;52.042;6.830;2023-05-10T12:10:24;68.00;;;27.10;;
23754;SDS011;12057;52.042;6.830;2023-05-10T12:15:26;74.78;;;28.00;;
23754;SDS011;12057;52.042;6.830;2023-05-10T12:20:28;69.38;;;28.17;;
23754;SDS011;12057;52.042;6.830;2023-05-10T12:25:30;68.32;;;27.17;;
23754;SDS011;12057;52.042;6.830;2023-05-10T12:30:33;70.05;;;26.45;;
23754;SDS011;12057;52.042;6.830;2023-05-10T12:40:46;59.88;;;21.63;;
23754;SDS011;12057;52.042;6.830;2023-05-10T12:45:47;44.93;;;19.97;;
23754;SDS011;12057;52.042;6.830;2023-05-10T12:50:48;51.67;;;21.95;;
23754;SDS011;12057;52.042;6.830;2023-05-10T12:55:50;54.78;;;21.45;;
23754;SDS011;12057;52.042;6.830;2023-05-10T13:00:50;45.70;;;20.03;;
23754;SDS011;12057;52.042;6.830;2023-05-10T13:05:51;41.58;;;17.33;;
23754;SDS011;12057;52.042;6.830;2023-05-10T13:10:52;27.83;;;13.57;;
23754;SDS011;12057;52.042;6.830;2023-05-10T13:15:53;23.00;;;12.00;;
23754;SDS011;12057;52.042;6.830;2023-05-10T13:20:54;31.63;;;12.07;;
23754;SDS011;12057;52.042;6.830;2023-05-10T13:25:55;23.52;;;10.82;;
23754;SDS011;12057;52.042;6.830;2023-05-10T13:30:56;28.93;;;13.37;;
23754;SDS011;12057;52.042;6.830;2023-05-10T13:35:58;26.07;;;12.57;;
23754;SDS011;12057;52.042;6.830;2023-05-10T13:40:59;24.08;;;12.05;;
23754;SDS011;12057;52.042;6.830;2023-05-10T13:46:03;34.50;;;13.03;;
23754;SDS011;12057;52.042;6.830;2023-05-10T13:51:03;23.05;;;11.88;;
23754;SDS011;12057;52.042;6.830;2023-05-10T13:56:04;22.63;;;11.27;;
23754;SDS011;12057;52.042;6.830;2023-05-10T14:01:05;23.88;;;11.15;;
23754;SDS011;12057;52.042;6.830;2023-05-10T14:06:07;19.30;;;8.67;;
23754;SDS011;12057;52.042;6.830;2023-05-10T14:11:08;18.45;;;8.75;;
23754;SDS011;12057;52.042;6.830;2023-05-10T14:16:09;17.83;;;8.13;;
23754;SDS011;12057;52.042;6.830;2023-05-10T14:21:11;16.20;;;7.63;;
23754;SDS011;12057;52.042;6.830;2023-05-10T14:26:12;20.23;;;7.28;;
23754;SDS011;12057;52.042;6.830;2023-05-10T14:31:13;15.03;;;7.80;;
23754;SDS011;12057;52.042;6.830;2023-05-10T14:36:14;21.17;;;7.22;;
23754;SDS011;12057;52.042;6.830;2023-05-10T14:41:15;43.17;;;11.30;;
23754;SDS011;12057;52.042;6.830;2023-05-10T14:46:17;11.15;;;5.88;;
23754;SDS011;12057;52.042;6.830;2023-05-10T14:51:18;14.30;;;6.60;;
23754;SDS011;12057;52.042;6.830;2023-05-10T14:56:24;11.63;;;5.18;;
23754;SDS011;12057;52.042;6.830;2023-05-10T15:01:26;17.63;;;6.75;;
23754;SDS011;12057;52.042;6.830;2023-05-10T15:06:30;12.00;;;6.20;;
23754;SDS011;12057;52.042;6.830;2023-05-10T15:11:32;11.38;;;5.88;;
23754;SDS011;12057;52.042;6.830;2023-05-10T15:16:32;13.53;;;5.97;;
23754;SDS011;12057;52.042;6.830;2023-05-10T15:21:33;12.00;;;5.22;;
23754;SDS011;12057;52.042;6.830;2023-05-10T15:26:38;14.73;;;5.43;;
23754;SDS011;12057;52.042;6.830;2023-05-10T15:31:39;11.13;;;4.90;;
23754;SDS011;12057;52.042;6.830;2023-05-10T15:36:40;11.60;;;4.43;;
23754;SDS011;12057;52.042;6.830;2023-05-10T15:41:44;11.33;;;5.40;;
23754;SDS011;12057;52.042;6.830;2023-05-10T15:46:45;10.48;;;5.57;;
23754;SDS011;12057;52.042;6.830;2023-05-10T15:51:45;15.93;;;6.87;;
23754;SDS011;12057;52.042;6.830;2023-05-10T15:56:46;24.37;;;7.07;;
23754;SDS011;12057;52.042;6.830;2023-05-10T16:06:49;37.25;;;11.23;;
23754;SDS011;12057;52.042;6.830;2023-05-10T16:11:50;9.70;;;5.17;;
23754;SDS011;12057;52.042;6.830;2023-05-10T16:16:51;11.73;;;5.33;;
23754;SDS011;12057;52.042;6.830;2023-05-10T16:21:52;10.13;;;5.33;;
23754;SDS011;12057;52.042;6.830;2023-05-10T16:26:52;10.63;;;5.70;;
23754;SDS011;12057;52.042;6.830;2023-05-10T16:31:53;18.07;;;6.53;;
23754;SDS011;12057;52.042;6.830;2023-05-10T16:36:54;13.70;;;5.97;;
23754;SDS011;12057;52.042;6.830;2023-05-10T16:41:55;14.77;;;6.60;;
23754;SDS011;12057;52.042;6.830;2023-05-10T16:46:56;19.37;;;5.97;;
23754;SDS011;12057;52.042;6.830;2023-05-10T16:51:56;15.37;;;6.03;;
23754;SDS011;12057;52.042;6.830;2023-05-10T16:56:57;15.80;;;6.70;;
23754;SDS011;12057;52.042;6.830;2023-05-10T17:01:58;14.33;;;6.10;;
23754;SDS011;12057;52.042;6.830;2023-05-10T17:06:58;27.47;;;10.17;;
23754;SDS011;12057;52.042;6.830;2023-05-10T17:11:59;20.83;;;10.57;;
23754;SDS011;12057;52.042;6.830;2023-05-10T17:17:02;19.40;;;10.70;;
23754;SDS011;12057;52.042;6.830;2023-05-10T17:22:03;24.23;;;10.57;;
23754;SDS011;12057;52.042;6.830;2023-05-10T17:27:04;19.37;;;9.77;;
23754;SDS011;12057;52.042;6.830;2023-05-10T17:32:05;21.13;;;9.57;;
23754;SDS011;12057;52.042;6.830;2023-05-10T17:37:08;21.88;;;9.15;;
23754;SDS011;12057;52.042;6.830;2023-05-10T17:42:08;22.83;;;8.87;;
23754;SDS011;12057;52.042;6.830;2023-05-10T17:47:10;14.88;;;7.97;;
23754;SDS011;12057;52.042;6.830;2023-05-10T17:52:11;21.30;;;10.57;;
23754;SDS011;12057;52.042;6.830;2023-05-10T17:57:12;23.60;;;12.10;;
23754;SDS011;12057;52.042;6.830;2023-05-10T18:02:13;15.47;;;8.83;;
23754;SDS011;12057;52.042;6.830;2023-05-10T18:07:14;21.73;;;8.47;;
23754;SDS011;12057;52.042;6.830;2023-05-10T18:12:15;15.63;;;7.47;;
23754;SDS011;12057;52.042;6.830;2023-05-10T18:17:16;12.30;;;7.00;;
23754;SDS011;12057;52.042;6.830;2023-05-10T18:22:17;14.87;;;7.50;;
23754;SDS011;12057;52.042;6.830;2023-05-10T18:27:18;14.47;;;7.33;;
23754;SDS011;12057;52.042;6.830;2023-05-10T18:32:19;24.05;;;7.18;;
23754;SDS011;12057;52.042;6.830;2023-05-10T18:37:20;14.23;;;7.07;;
23754;SDS011;12057;52.042;6.830;2023-05-10T18:42:20;15.90;;;7.77;;
23754;SDS011;12057;52.042;6.830;2023-05-10T18:47:21;13.80;;;6.77;;
23754;SDS011;12057;52.042;6.830;2023-05-10T18:52:22;13.63;;;7.43;;
23754;SDS011;12057;52.042;6.830;2023-05-10T18:57:23;16.30;;;8.03;;
23754;SDS011;12057;52.042;6.830;2023-05-10T19:02:23;17.67;;;8.00;;
23754;SDS011;12057;52.042;6.830;2023-05-10T19:12:26;19.85;;;8.32;;
23754;SDS011;12057;52.042;6.830;2023-05-10T19:17:27;18.55;;;8.10;;
23754;SDS011;12057;52.042;6.830;2023-05-10T19:22:28;17.03;;;8.57;;
23754;SDS011;12057;52.042;6.830;2023-05-10T19:27:29;15.87;;;8.30;;
23754;SDS011;12057;52.042;6.830;2023-05-10T19:32:31;15.75;;;8.63;;
23754;SDS011;12057;52.042;6.830;2023-05-10T19:37:31;20.67;;;9.90;;
23754;SDS011;12057;52.042;6.830;2023-05-10T19:42:32;17.83;;;9.27;;
23754;SDS011;12057;52.042;6.830;2023-05-10T19:47:33;19.20;;;9.73;;
23754;SDS011;12057;52.042;6.830;2023-05-10T19:52:34;24.13;;;9.85;;
23754;SDS011;12057;52.042;6.830;2023-05-10T19:57:36;17.15;;;9.23;;
23754;SDS011;12057;52.042;6.830;2023-05-10T20:02:37;22.93;;;9.87;;
23754;SDS011;12057;52.042;6.830;2023-05-10T20:07:37;20.37;;;9.60;;
23754;SDS011;12057;52.042;6.830;2023-05-10T20:12:38;21.57;;;8.17;;
23754;SDS011;12057;52.042;6.830;2023-05-10T20:17:39;17.10;;;7.97;;
23754;SDS011;12057;52.042;6.830;2023-05-10T20:22:40;17.50;;;7.50;;
23754;SDS011;12057;52.042;6.830;2023-05-10T20:27:47;15.48;;;8.07;;
23754;SDS011;12057;52.042;6.830;2023-05-10T20:32:49;24.95;;;8.65;;
23754;SDS011;12057;52.042;6.830;2023-05-10T20:37:50;20.27;;;8.63;;
23754;SDS011;12057;52.042;6.830;2023-05-10T20:42:51;17.20;;;8.43;;
23754;SDS011;12057;52.042;6.830;2023-05-10T20:47:53;20.45;;;8.60;;
23754;SDS011;12057;52.042;6.830;2023-05-10T20:52:53;19.83;;;8.30;;
23754;SDS011;12057;52.042;6.830;2023-05-10T20:58:09;19.88;;;9.55;;
23754;SDS011;12057;52.042;6.830;2023-05-10T21:03:17;20.88;;;10.63;;
23754;SDS011;12057;52.042;6.830;2023-05-10T21:08:22;20.42;;;10.95;;
23754;SDS011;12057;52.042;6.830;2023-05-10T21:13:32;23.00;;;10.05;;
23754;SDS011;12057;52.042;6.830;2023-05-10T21:18:35;26.10;;;10.65;;
23754;SDS011;12057;52.042;6.830;2023-05-10T21:28:53;18.95;;;10.70;;
23754;SDS011;12057;52.042;6.830;2023-05-10T21:33:55;21.98;;;10.90;;
23754;SDS011;12057;52.042;6.830;2023-05-10T21:38:57;23.73;;;10.82;;
23754;SDS011;12057;52.042;6.830;2023-05-10T21:44:03;23.95;;;11.10;;
23754;SDS011;12057;52.042;6.830;2023-05-10T21:49:29;26.80;;;11.55;;
23754;SDS011;12057;52.042;6.830;2023-05-10T21:54:36;28.58;;;14.80;;
23754;SDS011;12057;52.042;6.830;2023-05-10T21:59:36;29.17;;;11.60;;
23754;SDS011;12057;52.042;6.830;2023-05-10T22:09:42;28.02;;;12.88;;
23754;SDS011;12057;52.042;6.830;2023-05-10T22:14:43;32.75;;;13.55;;
23754;SDS011;12057;52.042;6.830;2023-05-10T22:19:43;26.97;;;13.63;;
23754;SDS011;12057;52.042;6.830;2023-05-10T22:24:44;26.33;;;13.53;;
23754;SDS011;12057;52.042;6.830;2023-05-10T22:29:45;30.43;;;13.20;;
23754;SDS011;12057;52.042;6.830;2023-05-10T22:34:47;25.25;;;13.13;;
23754;SDS011;12057;52.042;6.830;2023-05-10T22:39:48;30.90;;;15.30;;
23754;SDS011;12057;52.042;6.830;2023-05-10T22:44:49;41.53;;;14.53;;
23754;SDS011;12057;52.042;6.830;2023-05-10T22:49:49;40.00;;;15.03;;
23754;SDS011;12057;52.042;6.830;2023-05-10T22:54:50;30.83;;;15.10;;
23754;SDS011;12057;52.042;6.830;2023-05-10T22:59:51;37.40;;;16.40;;
23754;SDS011;12057;52.042;6.830;2023-05-10T23:04:52;32.97;;;15.70;;
23754;SDS011;12057;52.042;6.830;2023-05-10T23:09:53;32.93;;;15.63;;
23754;SDS011;12057;52.042;6.830;2023-05-10T23:14:53;33.90;;;15.83;;
23754;SDS011;12057;52.042;6.830;2023-05-10T23:24:56;31.05;;;15.10;;
23754;SDS011;12057;52.042;6.830;2023-05-10T23:29:57;29.33;;;14.67;;
23754;SDS011;12057;52.042;6.830;2023-05-10T23:34:58;46.23;;;16.10;;
23754;SDS011;12057;52.042;6.830;2023-05-10T23:39:58;32.80;;;16.30;;
23754;SDS011;12057;52.042;6.830;2023-05-10T23:44:59;42.17;;;16.60;;
23754;SDS011;12057;52.042;6.830;2023-05-10T23:50:00;37.77;;;18.80;;
23754;SDS011;12057;52.042;6.830;2023-05-10T23:55:01;34.27;;;18.33;;
